Impacts METAR Board
IDs:

KATL - Atlanta/Hartsfield-J, GA, US

Updated at: 2100 UTC 15 Jun 2019
Potential Impact None Slight Moderate High
Time 15/09Z 15/10Z 15/11Z 15/12Z 15/13Z 15/14Z 15/15Z 15/16Z 15/17Z 15/18Z 15/19Z 15/20Z 15/21Z
Temp64 63 63 65 70 73 77 80 82 82 83 83 84
Dewpt53 55 55 57 60 61 63 63 63 62 63 62 62
Altim30.15 30.16 30.18 30.19 30.21 30.21 30.19 30.19 30.17 30.16 30.13 30.12 30.11
VIS10 10 10 10 10 10 10 10 10 10 10 10 10
CIG-- -- -- 250 -- -- -- -- -- 45 250 250 250
CoverFEWSCTSCTBKNSCTFEWFEWFEWSCTBKNBKNBKNBKN
FltCatVFRVFRVFRVFRVFRVFRVFRVFRVFRVFRVFRVFRVFR
WX--------------------------
WDir15014001300190190160190190200200220
WSpd4 3 0 4 4 8 7 9 8 10 7 7 6
WGst-- -- -- -- -- -- -- -- -- -- -- -- --
Raw hourly METARs
KATL 150852Z 15004KT 10SM FEW200 FEW250 18/12 A3015 RMK AO2 SLP203 T01780117 55003
KATL 150952Z 14003KT 10SM FEW200 SCT250 17/13 A3016 RMK AO2 SLP205 T01720128
KATL 151052Z 00000KT 10SM FEW200 SCT250 17/13 A3018 RMK AO2 SLP210 T01720128
KATL 151152Z 13004KT 10SM FEW180 BKN250 18/14 A3019 RMK AO2 SLP217 T01830139 10200 20172 53013
KATL 151252Z VRB04KT 10SM FEW150 FEW180 SCT220 21/16 A3021 RMK AO2 SLP222 T02110156
KATL 151352Z 19008KT 10SM FEW150 FEW250 23/16 A3021 RMK AO2 SLP221 T02280161
KATL 151452Z 19007KT 10SM FEW150 FEW250 25/17 A3019 RMK AO2 SLP213 T02500172 58002
KATL 151552Z 16009KT 10SM FEW034 FEW150 27/17 A3019 RMK AO2 SLP213 T02670172
KATL 151652Z 19008KT 150V220 10SM SCT040 SCT250 28/17 A3017 RMK AO2 SLP207 T02780172
KATL 151752Z 19010KT 10SM BKN045 28/17 A3016 RMK AO2 SLP203 T02780167 10283 20189 58010
KATL 151852Z 20007KT 10SM SCT045 SCT075 BKN250 28/17 A3013 RMK AO2 SLP195 T02830172
KATL 151952Z 20007KT 170V240 10SM SCT048 SCT080 BKN250 28/17 A3012 RMK AO2 SLP191 T02830167
KATL 152052Z 22006KT 10SM SCT050 SCT075 BKN250 29/17 A3011 RMK AO2 SLP186 T02890167 56016



Page loaded:  21:09 UTC  |   02:09 PM Pacific  |   03:09 PM Mountain  |   04:09 PM Central  |   05:09 PM Eastern

 

ADVISORIES

FORECASTS

FORECASTS

OBSERVATIONS

USER TOOLS

ABOUT US